Time;durP1;ratioP1;P1;durP2;ratioP2;P2;SDS_P1;SDS_P2;PMS_P1;PMS_P2;Temp;Humidity;BMP_temperature;BMP_pressure;BME280_temperature;BME280_humidity;BME280_pressure;Samples;Min_cycle;Max_cycle;Signal;HPM_P1;HPM_P2
2023/01/04 00:00:59;;;;;;;30.37;17.13;;;;;;;7.47;88.05;101517.23;124271;1099;104730;-78
2023/01/04 00:03:32;;;;;;;31.43;17.40;;;;;;;7.45;87.93;101513.64;124428;1099;104239;-79
2023/01/04 00:06:06;;;;;;;30.50;16.20;;;;;;;7.43;88.10;101512.61;124251;1099;104242;-79
2023/01/04 00:08:37;;;;;;;30.17;16.87;;;;;;;7.39;88.10;101510.63;124299;1099;104345;-79
2023/01/04 00:11:13;;;;;;;32.10;16.80;;;;;;;7.37;88.49;101510.53;124624;1099;104283;-78
2023/01/04 00:13:45;;;;;;;28.70;16.97;;;;;;;7.35;88.31;101519.98;124439;1099;104216;-79
2023/01/04 00:16:19;;;;;;;31.23;16.70;;;;;;;7.34;88.21;101517.27;124412;1099;104615;-80
2023/01/04 00:18:51;;;;;;;32.63;16.73;;;;;;;7.31;88.71;101524.91;124357;1099;104341;-79
2023/01/04 00:21:24;;;;;;;30.07;16.77;;;;;;;7.29;88.38;101526.48;124499;1099;104386;-80
2023/01/04 00:23:57;;;;;;;29.33;16.10;;;;;;;7.28;88.57;101522.98;124338;1099;104351;-81
2023/01/04 00:26:30;;;;;;;30.70;16.35;;;;;;;7.28;88.42;101522.98;124491;1099;104329;-79
2023/01/04 00:29:04;;;;;;;34.60;17.43;;;;;;;7.27;88.64;101520.27;124480;1099;104651;-79
2023/01/04 00:31:36;;;;;;;29.47;15.57;;;;;;;7.28;88.66;101514.26;124420;1099;104812;-78
2023/01/04 00:34:11;;;;;;;30.60;15.30;;;;;;;7.27;88.99;101523.78;124139;1099;104337;-79
2023/01/04 00:36:42;;;;;;;28.30;14.70;;;;;;;7.28;88.51;101519.48;124143;1099;104226;-79
2023/01/04 00:39:15;;;;;;;28.43;15.87;;;;;;;7.28;88.70;101522.98;124381;1099;104274;-79
2023/01/04 00:41:48;;;;;;;31.48;16.30;;;;;;;7.29;88.53;101516.05;124506;1099;104267;-80
2023/01/04 00:44:21;;;;;;;27.33;15.80;;;;;;;7.30;88.85;101523.08;124482;1099;104405;-79
2023/01/04 00:46:52;;;;;;;31.23;16.73;;;;;;;7.29;88.53;101523.88;124529;1099;104320;-80
2023/01/04 00:49:23;;;;;;;29.93;15.07;;;;;;;7.29;88.40;101523.88;124414;1099;104270;-79
2023/01/04 00:51:55;;;;;;;31.33;15.83;;;;;;;7.29;88.83;101523.88;124350;1099;104466;-80
2023/01/04 00:54:27;;;;;;;28.03;15.17;;;;;;;7.28;88.77;101528.20;124325;1099;104281;-79
2023/01/04 00:57:00;;;;;;;28.70;14.73;;;;;;;7.27;88.67;101523.78;124425;1098;104303;-80
2023/01/04 00:59:31;;;;;;;29.10;14.47;;;;;;;7.29;88.75;101531.70;124041;1099;104287;-79
2023/01/04 01:02:02;;;;;;;29.47;15.40;;;;;;;7.28;88.49;101529.92;124293;1099;104160;-79
2023/01/04 01:04:33;;;;;;;27.30;14.60;;;;;;;7.27;88.66;101523.78;124261;1099;104268;-79
2023/01/04 01:07:05;;;;;;;28.87;15.53;;;;;;;7.27;88.57;101529.00;124379;1099;104165;-79
2023/01/04 01:09:36;;;;;;;29.00;15.30;;;;;;;7.28;88.53;101532.53;124370;1099;104383;-81
2023/01/04 01:12:07;;;;;;;28.70;14.13;;;;;;;7.27;88.40;101533.33;124436;1099;104278;-80
2023/01/04 01:14:38;;;;;;;28.90;14.87;;;;;;;7.24;88.70;101536.62;124021;1098;104348;-79
2023/01/04 01:17:10;;;;;;;28.57;15.87;;;;;;;7.24;88.38;101530.52;124468;1099;104272;-80
2023/01/04 01:19:41;;;;;;;28.00;15.47;;;;;;;7.23;88.63;101532.23;124418;1099;104239;-79
2023/01/04 01:22:12;;;;;;;27.90;15.00;;;;;;;7.25;88.68;101535.84;124372;1099;104386;-80
2023/01/04 01:24:43;;;;;;;28.17;15.57;;;;;;;7.25;88.90;101524.50;124404;1099;104313;-79
2023/01/04 01:27:15;;;;;;;28.60;15.17;;;;;;;7.26;88.59;101528.89;124305;1099;104268;-80
2023/01/04 01:29:46;;;;;;;29.30;14.35;;;;;;;7.25;88.50;101533.23;124417;1099;104711;-79
2023/01/04 01:32:17;;;;;;;27.20;15.13;;;;;;;7.25;88.71;101529.72;124193;1099;104638;-80
2023/01/04 01:34:48;;;;;;;27.67;14.77;;;;;;;7.26;88.62;101523.67;124418;1099;104472;-79
2023/01/04 01:37:20;;;;;;;29.33;14.90;;;;;;;7.24;88.33;101522.69;123989;1099;104329;-79
2023/01/04 01:39:51;;;;;;;28.17;15.93;;;;;;;7.24;88.63;101517.46;124354;1099;104283;-80
2023/01/04 01:42:23;;;;;;;28.07;14.47;;;;;;;7.24;88.72;101514.85;124291;1099;104290;-80
2023/01/04 01:45:09;;;;;;;27.00;14.87;;;;;;;7.25;88.90;101516.67;124357;1099;104277;-79
2023/01/04 01:47:45;;;;;;;29.40;14.50;;;;;;;7.23;88.49;101515.64;124482;1099;104332;-79
2023/01/04 01:50:28;;;;;;;28.60;14.93;;;;;;;7.19;88.83;101520.66;124551;1099;104236;-80
2023/01/04 01:53:01;;;;;;;27.90;15.10;;;;;;;7.15;88.52;101521.28;124402;1098;104376;-80
2023/01/04 01:55:35;;;;;;;27.02;14.60;;;;;;;7.13;88.37;101515.03;124348;1099;104364;-79
2023/01/04 01:58:09;;;;;;;31.93;15.43;;;;;;;7.12;88.68;101514.94;124362;1099;104249;-80
2023/01/04 02:00:40;;;;;;;29.27;14.30;;;;;;;7.08;88.39;101508.63;124488;1099;104190;-79
2023/01/04 02:03:18;;;;;;;25.70;13.80;;;;;;;7.06;88.66;101518.06;123929;1099;104357;-80
2023/01/04 02:05:54;;;;;;;25.20;13.50;;;;;;;7.04;89.04;101514.42;124021;1099;104370;-79
2023/01/04 02:08:27;;;;;;;27.90;13.30;;;;;;;7.01;88.99;101509.94;124470;1099;104232;-80
2023/01/04 02:10:58;;;;;;;27.60;14.63;;;;;;;6.97;88.93;101512.23;124283;1099;104303;-80
2023/01/04 02:16:27;;;;;;;27.73;15.00;;;;;;;6.90;88.78;101507.40;124460;1099;104339;-80
2023/01/04 02:19:08;;;;;;;27.17;14.30;;;;;;;6.87;88.84;101515.02;124673;1099;104300;-79
2023/01/04 02:21:59;;;;;;;28.47;15.13;;;;;;;6.83;88.80;101519.14;124500;1099;104371;-80
2023/01/04 02:24:52;;;;;;;26.73;14.70;;;;;;;6.81;88.91;101521.65;124323;1099;104255;-79
2023/01/04 02:27:46;;;;;;;30.33;14.37;;;;;;;6.79;88.90;101520.66;124422;1099;104278;-79
2023/01/04 02:30:51;;;;;;;25.43;14.65;;;;;;;6.79;88.77;101527.55;124523;1099;104194;-79
2023/01/04 02:33:34;;;;;;;29.30;14.47;;;;;;;6.76;89.00;101533.48;124430;1099;104386;-79
2023/01/04 02:36:17;;;;;;;26.70;13.30;;;;;;;6.75;89.05;101536.89;124402;1099;104192;-79
2023/01/04 02:39:03;;;;;;;28.23;14.33;;;;;;;6.75;88.94;101535.99;124493;1098;104230;-79
2023/01/04 02:41:42;;;;;;;26.85;13.95;;;;;;;6.75;89.00;101538.60;124344;1099;104275;-80
2023/01/04 02:47:10;;;;;;;28.73;14.07;;;;;;;6.76;88.82;101536.09;124506;1099;104254;-79
2023/01/04 02:52:30;;;;;;;27.80;13.70;;;;;;;6.78;88.91;101542.31;124252;1099;104274;-79
2023/01/04 02:55:05;;;;;;;27.00;13.07;;;;;;;6.79;89.02;101541.52;124533;1099;104373;-79
2023/01/04 02:57:49;;;;;;;27.13;13.50;;;;;;;6.78;88.66;101542.31;124360;1099;104245;-79
2023/01/04 03:06:13;;;;;;;26.23;13.72;;;;;;;6.76;88.70;101540.39;124400;1099;104223;-79
2023/01/04 03:06:32;;;;;;;26.37;13.93;;;;;;;6.74;89.12;101542.89;124074;1099;104261;-80
2023/01/04 03:09:11;;;;;;;29.13;14.03;;;;;;;6.74;88.76;101539.39;124409;1099;104351;-80
2023/01/04 03:14:43;;;;;;;24.37;13.17;;;;;;;6.72;88.49;101535.78;124469;1099;104242;-80
2023/01/04 03:17:19;;;;;;;27.30;13.43;;;;;;;6.70;88.90;101535.68;124451;1098;104353;-79
2023/01/04 03:19:54;;;;;;;27.30;14.33;;;;;;;6.69;89.00;101532.97;124536;1099;104650;-79
2023/01/04 03:36:59;;;;;;;25.67;13.27;;;;;;;6.60;88.89;101533.23;124292;1099;104359;-80
2023/01/04 03:48:30;;;;;;;28.00;13.20;;;;;;;6.56;88.78;101539.03;124243;1099;104316;-80
2023/01/04 03:51:14;;;;;;;24.60;12.07;;;;;;;6.54;88.62;101535.42;124593;1099;104341;-80
2023/01/04 03:53:54;;;;;;;22.90;11.85;;;;;;;6.54;88.40;101544.14;124518;1099;104274;-80
2023/01/04 03:56:27;;;;;;;23.67;11.67;;;;;;;6.53;88.36;101551.86;124553;1098;104187;-80
2023/01/04 03:58:59;;;;;;;24.60;12.27;;;;;;;6.48;88.61;101560.28;124441;1098;104274;-80
2023/01/04 04:01:31;;;;;;;22.33;11.60;;;;;;;6.47;88.67;101562.79;124849;1099;104712;-80
2023/01/04 04:09:42;;;;;;;23.57;11.27;;;;;;;6.44;88.74;101573.89;124406;1099;104361;-79
2023/01/04 04:12:13;;;;;;;23.47;10.67;;;;;;;6.44;88.68;101579.11;124519;1099;104223;-79
2023/01/04 04:14:45;;;;;;;23.30;11.40;;;;;;;6.43;88.43;101582.51;124425;1099;104242;-79
2023/01/04 04:17:16;;;;;;;23.03;11.20;;;;;;;6.40;88.29;101573.58;124423;1099;104350;-79
2023/01/04 04:19:47;;;;;;;25.60;10.70;;;;;;;6.40;88.41;101571.86;124627;1099;104049;-79
2023/01/04 04:22:18;;;;;;;24.37;11.27;;;;;;;6.39;88.45;101575.29;124743;1099;104242;-79
2023/01/04 04:24:50;;;;;;;23.50;11.23;;;;;;;6.39;88.27;101576.97;124383;1099;104273;-80
2023/01/04 04:27:21;;;;;;;23.87;11.43;;;;;;;6.38;88.22;101581.29;124714;1099;104299;-80
2023/01/04 04:29:52;;;;;;;23.00;10.93;;;;;;;6.37;88.30;101584.69;124266;1099;104364;-79
2023/01/04 04:32:23;;;;;;;21.87;10.67;;;;;;;6.36;88.31;101588.11;124563;1099;104255;-78
2023/01/04 04:34:54;;;;;;;23.87;10.73;;;;;;;6.35;87.93;101591.50;124752;1099;104309;-79
2023/01/04 04:37:29;;;;;;;21.60;10.27;;;;;;;6.32;88.34;101591.29;124538;1099;104245;-80
2023/01/04 04:40:00;;;;;;;22.20;10.47;;;;;;;6.29;88.21;101596.28;124443;1099;104229;-81
2023/01/04 04:42:31;;;;;;;22.50;10.80;;;;;;;6.26;88.24;101602.20;124379;1099;104175;-82
2023/01/04 04:45:03;;;;;;;22.57;11.07;;;;;;;6.24;88.00;101603.78;124300;1099;105510;-81
2023/01/04 04:47:34;;;;;;;25.17;11.17;;;;;;;6.22;88.25;101604.49;124376;1099;104213;-81
2023/01/04 04:50:06;;;;;;;21.67;10.00;;;;;;;6.20;87.96;101606.06;124399;1099;104248;-80
2023/01/04 04:52:40;;;;;;;22.17;10.67;;;;;;;6.19;87.98;101609.48;124320;1099;101857;-79
2023/01/04 04:55:11;;;;;;;23.87;9.95;;;;;;;6.17;87.93;101619.80;124789;1099;104750;-80
2023/01/04 04:57:43;;;;;;;23.97;11.17;;;;;;;6.15;87.87;101618.77;124441;1098;104267;-80
2023/01/04 05:00:16;;;;;;;21.70;10.67;;;;;;;6.15;87.88;101623.08;124690;1099;104242;-81
2023/01/04 05:02:47;;;;;;;20.82;10.28;;;;;;;6.15;88.02;101618.77;124961;1099;104226;-80
2023/01/04 05:05:18;;;;;;;24.07;9.97;;;;;;;6.16;88.04;101609.27;124410;1099;104245;-81
2023/01/04 05:07:50;;;;;;;22.97;10.40;;;;;;;6.16;87.97;101612.77;124510;1099;104303;-80
2023/01/04 05:10:21;;;;;;;21.73;10.27;;;;;;;6.15;87.91;101605.73;124388;1099;104353;-79
2023/01/04 05:13:01;;;;;;;20.97;10.33;;;;;;;6.14;87.87;101616.98;124426;1099;104272;-80
2023/01/04 05:15:38;;;;;;;24.13;10.80;;;;;;;6.13;87.60;101617.76;124398;1099;104233;-80
2023/01/04 05:18:11;;;;;;;23.20;10.25;;;;;;;6.11;87.75;101612.44;124443;1099;104191;-80
2023/01/04 05:20:42;;;;;;;23.83;10.83;;;;;;;6.11;87.61;101620.25;124219;1099;104274;-79
2023/01/04 05:23:15;;;;;;;21.45;9.85;;;;;;;6.11;87.63;101625.47;124240;1099;104307;-80
2023/01/04 05:25:47;;;;;;;23.40;10.23;;;;;;;6.13;87.66;101625.58;124334;1099;104768;-80
2023/01/04 05:28:18;;;;;;;23.90;10.37;;;;;;;6.10;87.04;101626.25;124358;1099;104658;-81
2023/01/04 05:30:50;;;;;;;23.53;10.80;;;;;;;6.12;87.35;101628.97;124542;1099;104269;-80
2023/01/04 05:33:23;;;;;;;;;;;;;;;6.08;86.46;101627.85;124447;1099;104230;-81
2023/01/04 05:35:56;;;;;;;22.43;11.00;;;;;;;6.08;87.12;101626.95;124334;1099;104278;-81
2023/01/04 05:38:27;;;;;;;23.13;10.50;;;;;;;6.04;86.86;101625.81;124344;1099;104259;-80
2023/01/04 05:40:59;;;;;;;23.67;11.33;;;;;;;6.02;86.71;101626.52;124314;1099;104291;-80
2023/01/04 05:43:30;;;;;;;23.73;11.03;;;;;;;5.99;86.71;101634.11;124337;1099;104281;-81
2023/01/04 05:46:02;;;;;;;22.07;10.93;;;;;;;5.99;86.96;101636.72;124457;1099;104274;-81
2023/01/04 05:48:33;;;;;;;23.20;11.33;;;;;;;5.99;86.69;101635.00;124334;1099;104304;-80
2023/01/04 05:51:04;;;;;;;22.20;11.27;;;;;;;5.98;86.21;101635.79;124458;1099;104223;-80
2023/01/04 05:53:36;;;;;;;24.00;11.77;;;;;;;5.97;86.23;101633.08;124218;1099;104245;-79
2023/01/04 05:56:08;;;;;;;24.20;11.67;;;;;;;5.97;86.23;101638.28;123993;1099;104255;-80
2023/01/04 05:58:39;;;;;;;23.37;11.53;;;;;;;5.95;86.25;101638.14;124466;1099;104357;-80
2023/01/04 06:01:12;;;;;;;21.83;11.20;;;;;;;5.95;86.08;101645.95;124370;1099;104366;-80
2023/01/04 06:03:43;;;;;;;22.57;11.20;;;;;;;5.96;86.19;101641.67;124317;1099;104255;-78
2023/01/04 06:06:14;;;;;;;22.50;11.25;;;;;;;5.98;86.28;101654.03;124009;1102;104178;-79
2023/01/04 06:08:46;;;;;;;25.80;11.63;;;;;;;5.99;86.25;101644.53;124525;1099;104278;-77
2023/01/04 06:11:17;;;;;;;24.17;10.60;;;;;;;5.99;86.33;101658.45;124423;1098;104379;-79
2023/01/04 06:13:48;;;;;;;22.37;10.63;;;;;;;5.98;86.25;101659.23;124625;1099;104373;-78
2023/01/04 06:16:20;;;;;;;23.93;10.63;;;;;;;5.99;86.02;101657.56;124555;1099;104354;-78
2023/01/04 06:18:51;;;;;;;22.87;10.67;;;;;;;5.97;85.99;101662.66;124435;1099;104168;-78
2023/01/04 06:21:24;;;;;;;21.30;10.00;;;;;;;5.95;85.90;101672.01;124550;1099;104379;-78
2023/01/04 06:23:55;;;;;;;22.93;9.57;;;;;;;5.91;85.72;101655.25;124626;1099;104395;-79
2023/01/04 06:26:27;;;;;;;22.73;10.33;;;;;;;5.89;86.25;101667.28;124629;1099;104211;-79
2023/01/04 06:28:58;;;;;;;21.87;9.87;;;;;;;5.87;85.79;101670.55;124933;1099;104273;-78
2023/01/04 06:31:32;;;;;;;20.43;9.87;;;;;;;5.81;85.63;101681.41;124858;1099;103453;-78
2023/01/04 06:34:06;;;;;;;22.95;10.10;;;;;;;5.79;86.10;101683.01;124444;1099;104281;-78
2023/01/04 06:36:40;;;;;;;21.17;9.63;;;;;;;5.77;85.88;101682.00;124864;1099;103072;-78
2023/01/04 06:39:14;;;;;;;22.67;9.70;;;;;;;5.75;85.30;101684.49;124841;1099;104296;-77
2023/01/04 06:41:46;;;;;;;22.83;9.43;;;;;;;5.70;85.36;101696.28;124888;1099;104272;-78
2023/01/04 06:44:20;;;;;;;21.07;9.47;;;;;;;5.70;85.28;101691.06;124818;1099;104249;-77
2023/01/04 06:46:54;;;;;;;23.70;9.70;;;;;;;5.73;84.77;101700.78;124797;1099;104248;-78
2023/01/04 06:49:25;;;;;;;20.52;8.95;;;;;;;5.70;84.62;101700.56;124934;1099;102357;-79
2023/01/04 06:51:56;;;;;;;21.87;9.77;;;;;;;5.73;84.02;101703.39;124984;1099;102963;-80
2023/01/04 06:54:28;;;;;;;20.90;8.83;;;;;;;5.73;83.47;101700.78;125091;1099;102322;-79
2023/01/04 06:57:01;;;;;;;18.37;8.60;;;;;;;5.75;82.18;101715.75;124815;1099;104200;-79
2023/01/04 06:59:33;;;;;;;17.50;7.85;;;;;;;5.78;81.73;101722.89;125095;1099;104254;-79
2023/01/04 07:02:05;;;;;;;23.13;8.77;;;;;;;5.87;81.74;101722.65;125152;1099;103624;-79
2023/01/04 07:04:37;;;;;;;17.55;7.50;;;;;;;5.90;79.13;101728.09;125048;1098;104152;-79
2023/01/04 07:07:09;;;;;;;19.07;7.10;;;;;;;5.98;80.67;101734.80;124972;1099;104204;-79
2023/01/04 07:09:40;;;;;;;15.87;7.27;;;;;;;6.02;80.52;101741.17;124522;1099;104276;-79
2023/01/04 07:12:17;;;;;;;14.50;6.40;;;;;;;6.05;80.08;101734.47;125035;1099;104272;-79
2023/01/04 07:14:49;;;;;;;15.13;6.30;;;;;;;6.05;78.82;101729.26;124491;1099;102167;-78
2023/01/04 07:17:24;;;;;;;14.70;6.10;;;;;;;6.06;77.83;101741.50;124890;1099;104839;-78
2023/01/04 07:19:57;;;;;;;12.90;5.73;;;;;;;6.08;77.45;101736.41;125032;1099;104277;-78
2023/01/04 07:22:29;;;;;;;14.80;6.35;;;;;;;6.07;75.30;101745.00;124933;1099;104200;-78
2023/01/04 07:25:01;;;;;;;14.57;6.00;;;;;;;6.05;75.29;101744.89;124565;1099;104174;-79
2023/01/04 07:27:32;;;;;;;15.53;5.40;;;;;;;6.02;70.13;101752.48;125171;1099;104491;-79
2023/01/04 07:30:10;;;;;;;13.70;6.00;;;;;;;6.09;74.16;101741.73;124960;1099;104249;-79
2023/01/04 07:32:42;;;;;;;14.90;6.40;;;;;;;6.17;75.17;101751.80;126824;1098;102089;-80
2023/01/04 07:35:15;;;;;;;14.60;5.70;;;;;;;6.22;74.46;101748.74;127083;1098;102263;-81
2023/01/04 07:37:51;;;;;;;12.67;5.70;;;;;;;6.29;75.40;101751.02;127015;1098;103857;-79
2023/01/04 07:40:24;;;;;;;17.20;6.63;;;;;;;6.30;74.76;101750.20;126944;1099;101980;-79
2023/01/04 07:43:02;;;;;;;12.03;5.27;;;;;;;6.30;74.91;101750.20;126207;1102;102943;-77
2023/01/04 07:45:38;;;;;;;16.17;5.97;;;;;;;6.29;75.04;101748.41;126686;1098;102720;-79
2023/01/04 07:48:11;;;;;;;14.80;6.40;;;;;;;6.25;73.03;101759.39;126775;1099;102710;-77
2023/01/04 07:50:43;;;;;;;16.87;5.77;;;;;;;6.16;71.57;101757.82;126121;1099;101909;-78
2023/01/04 07:53:17;;;;;;;12.07;5.90;;;;;;;6.10;71.84;101758.27;126236;1099;103976;-77
2023/01/04 07:55:57;;;;;;;13.53;5.90;;;;;;;6.06;71.45;101770.17;126915;1099;103151;-77
2023/01/04 07:58:33;;;;;;;15.33;6.23;;;;;;;6.07;72.96;101774.56;126739;1098;102751;-78
2023/01/04 08:01:12;;;;;;;16.57;6.33;;;;;;;6.07;72.21;101771.06;126123;1099;102973;-79
2023/01/04 08:03:47;;;;;;;14.30;6.40;;;;;;;6.09;73.44;101764.25;126688;1098;102623;-79
2023/01/04 08:06:20;;;;;;;16.10;6.17;;;;;;;6.10;71.72;101774.80;126137;1099;102978;-78
2023/01/04 08:08:53;;;;;;;15.57;6.60;;;;;;;6.16;71.83;101770.85;126065;1099;102661;-78
2023/01/04 08:11:24;;;;;;;;;;;;;;;6.22;68.66;101764.38;126716;1097;102743;-80
2023/01/04 08:13:55;;;;;;;14.20;6.80;;;;;;;6.23;70.14;101774.02;126440;1099;101943;-78
2023/01/04 08:16:30;;;;;;;18.63;7.60;;;;;;;6.24;71.90;101767.10;126585;1099;102828;-78
2023/01/04 08:19:06;;;;;;;17.10;7.40;;;;;;;6.25;71.55;101766.32;126235;1099;103154;-77
2023/01/04 08:21:39;;;;;;;19.05;8.33;;;;;;;6.24;72.08;101761.89;126987;1098;102243;-78
2023/01/04 08:24:15;;;;;;;20.63;7.90;;;;;;;6.21;71.44;101770.38;127064;1099;102502;-78
2023/01/04 08:26:48;;;;;;;17.47;7.20;;;;;;;6.21;71.73;101769.48;125441;1099;104127;-77
2023/01/04 08:29:21;;;;;;;20.87;8.43;;;;;;;6.21;72.21;101761.66;125146;1099;104478;-78
2023/01/04 08:31:53;;;;;;;19.57;7.83;;;;;;;6.23;71.52;101771.42;124716;1102;104255;-79
2023/01/04 08:34:25;;;;;;;20.63;7.63;;;;;;;6.24;72.41;101774.92;125321;1099;104153;-79
2023/01/04 08:36:58;;;;;;;21.77;8.43;;;;;;;6.18;71.90;101777.97;125295;1099;104207;-78
2023/01/04 08:39:40;;;;;;;17.20;7.30;;;;;;;6.13;71.90;101773.23;125319;1099;104192;-78
2023/01/04 08:42:22;;;;;;;20.47;8.60;;;;;;;6.06;72.55;101779.66;125400;1099;103841;-79
2023/01/04 08:45:04;;;;;;;22.00;8.40;;;;;;;6.01;72.14;101768.00;125299;1099;102616;-77
2023/01/04 08:47:40;;;;;;;20.80;8.80;;;;;;;5.97;72.03;101763.34;125179;1099;102464;-78
2023/01/04 08:50:15;;;;;;;20.33;9.53;;;;;;;5.88;71.89;101774.87;125207;1099;104242;-78
2023/01/04 08:52:50;;;;;;;24.33;9.93;;;;;;;5.81;72.34;101771.69;126182;1099;102565;-78
2023/01/04 08:55:30;;;;;;;20.75;8.43;;;;;;;5.89;72.19;101760.13;126968;1099;102550;-79
2023/01/04 08:58:04;;;;;;;18.07;7.90;;;;;;;5.99;72.17;101765.28;125993;1099;104171;-77
2023/01/04 09:00:42;;;;;;;17.20;7.60;;;;;;;6.08;72.19;101763.36;125351;1099;107079;-78
2023/01/04 09:03:16;;;;;;;21.97;8.43;;;;;;;6.16;71.31;101758.72;125238;1099;103402;-77
2023/01/04 09:05:46;;;;;;;;;;;;;;;6.24;71.36;101764.49;124918;1099;104318;-78
2023/01/04 09:08:22;;;;;;;18.07;8.27;;;;;;;6.26;71.37;101758.61;125331;1098;104242;-77
2023/01/04 09:10:54;;;;;;;18.57;8.43;;;;;;;6.35;71.93;101744.42;125354;1099;118551;-77
2023/01/04 09:13:26;;;;;;;18.73;8.13;;;;;;;6.45;71.85;101752.09;125110;1099;104255;-77
2023/01/04 09:16:02;;;;;;;16.13;7.60;;;;;;;6.50;71.22;101736.78;124872;1099;102965;-77
2023/01/04 09:18:35;;;;;;;16.93;7.80;;;;;;;6.52;69.89;101736.11;124713;1099;102840;-77
2023/01/04 09:21:12;;;;;;;;;;;;;;;6.60;70.88;101718.41;125435;1099;103215;-80
2023/01/04 09:23:44;;;;;;;18.13;7.87;;;;;;;6.66;70.50;101726.66;125355;1099;104400;-79
2023/01/04 09:26:21;;;;;;;19.40;7.87;;;;;;;6.72;71.05;101723.59;125322;1098;104242;-80
2023/01/04 09:28:55;;;;;;;18.40;7.73;;;;;;;6.76;71.21;101715.17;126771;1098;102671;-76
2023/01/04 09:31:40;;;;;;;17.23;8.05;;;;;;;6.79;69.59;101715.39;125083;1098;110861;-79
2023/01/04 09:34:13;;;;;;;19.07;7.87;;;;;;;6.87;68.93;101715.92;125265;1099;104208;-79
2023/01/04 09:36:49;;;;;;;16.23;6.97;;;;;;;6.89;66.13;101712.64;125178;1099;104217;-78
2023/01/04 09:39:21;;;;;;;19.37;7.13;;;;;;;6.96;68.86;101701.81;125961;1099;103558;-77
2023/01/04 09:41:59;;;;;;;17.67;7.00;;;;;;;6.99;68.06;101703.73;125300;1099;104350;-78
2023/01/04 09:45:00;;;;;;;14.63;6.43;;;;;;;6.98;67.59;101700.23;125064;1099;104200;-78
2023/01/04 09:48:09;;;;;;;15.27;6.40;;;;;;;6.98;65.39;101695.02;124953;1099;104172;-78
2023/01/04 09:50:51;;;;;;;13.33;6.10;;;;;;;6.84;62.43;101686.22;124809;1099;104229;-78
2023/01/04 09:56:34;;;;;;;12.83;6.30;;;;;;;6.99;64.43;101695.91;126995;1098;103601;-81
2023/01/04 09:59:14;;;;;;;13.93;5.90;;;;;;;6.96;63.86;101674.81;127042;1098;101419;-79
2023/01/04 10:01:49;;;;;;;14.63;6.27;;;;;;;7.01;64.94;101668.20;126249;1099;102222;-80
2023/01/04 10:04:27;;;;;;;12.47;5.63;;;;;;;7.02;65.29;101670.02;126986;1099;102072;-80
2023/01/04 10:07:05;;;;;;;11.23;5.57;;;;;;;7.05;65.28;101665.02;126612;1099;101958;-78
2023/01/04 10:09:37;;;;;;;13.03;6.17;;;;;;;7.08;65.90;101670.44;125451;1099;104241;-79
2023/01/04 10:12:23;;;;;;;14.17;6.10;;;;;;;7.16;66.47;101665.75;124889;1099;110779;-77
2023/01/04 10:15:10;;;;;;;12.30;5.90;;;;;;;7.15;63.01;101670.08;124879;1099;104313;-76
2023/01/04 10:18:01;;;;;;;10.57;5.10;;;;;;;7.15;63.48;101667.46;126925;1098;102815;-77
2023/01/04 10:21:05;;;;;;;16.47;5.87;;;;;;;7.14;60.73;101677.80;126891;1098;101896;-77
2023/01/04 10:23:57;;;;;;;16.87;6.43;;;;;;;7.10;62.66;101673.16;125162;1099;102838;-77
2023/01/04 10:26:41;;;;;;;18.47;6.63;;;;;;;7.11;62.00;101669.76;126855;1098;102163;-78
2023/01/04 10:29:39;;;;;;;16.40;5.83;;;;;;;7.12;63.64;101664.64;126988;1098;102812;-79
2023/01/04 10:32:22;;;;;;;15.53;5.73;;;;;;;7.07;60.70;101671.23;126590;1099;102661;-79
2023/01/04 10:34:55;;;;;;;17.32;5.80;;;;;;;7.07;61.77;101659.89;126704;1099;101428;-78
2023/01/04 10:37:33;;;;;;;12.97;5.37;;;;;;;7.10;61.51;101655.78;126743;1099;102748;-79
2023/01/04 10:40:13;;;;;;;12.87;5.90;;;;;;;7.15;62.32;101646.58;126130;1102;102178;-79
2023/01/04 10:42:54;;;;;;;14.87;6.13;;;;;;;7.14;62.78;101636.03;126168;1099;102762;-78
2023/01/04 10:45:35;;;;;;;9.83;5.47;;;;;;;7.11;60.95;101651.48;126785;1098;101961;-78
2023/01/04 10:48:13;;;;;;;13.00;6.10;;;;;;;7.02;59.30;101656.97;126624;1099;102779;-79
2023/01/04 10:50:54;;;;;;;14.17;6.10;;;;;;;7.04;61.51;101633.59;126584;1099;102158;-77
2023/01/04 10:53:34;;;;;;;16.47;6.87;;;;;;;7.11;62.56;101636.72;126756;1098;101933;-79
2023/01/04 10:56:10;;;;;;;16.70;6.27;;;;;;;7.20;61.35;101642.56;126851;1099;102208;-78
2023/01/04 10:58:48;;;;;;;15.77;6.50;;;;;;;7.22;62.64;101633.95;126765;1099;102667;-79
2023/01/04 11:01:26;;;;;;;13.63;6.43;;;;;;;7.26;62.21;101631.64;126708;1099;101970;-79
2023/01/04 11:04:03;;;;;;;16.73;6.50;;;;;;;7.29;63.16;101642.30;126120;1099;102681;-79
2023/01/04 11:06:40;;;;;;;12.33;6.10;;;;;;;7.25;61.52;101626.31;126780;1099;101813;-79
2023/01/04 11:09:19;;;;;;;15.67;6.70;;;;;;;7.22;61.23;101624.39;126798;1098;101836;-79
2023/01/04 11:11:55;;;;;;;12.10;5.97;;;;;;;7.24;62.47;101627.11;126320;1098;102581;-79
2023/01/04 11:14:27;;;;;;;15.33;6.23;;;;;;;7.23;61.58;101626.22;126772;1099;102489;-79
2023/01/04 11:17:08;;;;;;;16.10;6.67;;;;;;;7.24;62.00;101628.00;126533;1099;102026;-78
2023/01/04 11:19:41;;;;;;;16.93;6.97;;;;;;;7.25;62.31;101632.44;126401;1099;101971;-79
2023/01/04 11:22:20;;;;;;;12.87;6.23;;;;;;;7.25;61.91;101623.70;126362;1099;102768;-79
2023/01/04 11:24:56;;;;;;;11.80;5.90;;;;;;;7.14;59.65;101610.83;126464;1099;101960;-79
2023/01/04 11:27:33;;;;;;;15.77;6.37;;;;;;;7.12;60.57;101603.68;126445;1099;101732;-80
2023/01/04 11:30:12;;;;;;;15.23;6.40;;;;;;;7.05;58.54;101601.48;126495;1099;101922;-80
2023/01/04 11:32:51;;;;;;;17.03;6.43;;;;;;;7.04;60.85;101587.50;126167;1100;101843;-79
2023/01/04 11:35:41;;;;;;;15.03;6.80;;;;;;;7.08;61.40;101601.69;126475;1099;102344;-79
2023/01/04 11:38:18;;;;;;;18.33;7.03;;;;;;;7.10;61.46;101598.36;126547;1099;102625;-79
2023/01/04 11:41:04;;;;;;;16.67;7.33;;;;;;;7.14;61.52;101594.27;126411;1098;102800;-79
2023/01/04 11:43:38;;;;;;;16.50;6.77;;;;;;;7.08;60.34;101596.47;126234;1099;101738;-79
2023/01/04 11:46:23;;;;;;;13.98;6.62;;;;;;;7.05;61.93;101593.65;126165;1099;102879;-79
2023/01/04 11:48:57;;;;;;;14.40;6.20;;;;;;;7.04;62.45;101584.00;125205;1099;104317;-78
2023/01/04 11:51:40;;;;;;;14.07;6.10;;;;;;;7.06;61.63;101585.92;125211;1099;102536;-78
2023/01/04 11:54:23;;;;;;;16.23;5.97;;;;;;;7.06;60.69;101590.22;125173;1099;107558;-78
2023/01/04 11:57:07;;;;;;;11.13;5.80;;;;;;;7.04;61.27;101584.89;126955;1098;101380;-78
2023/01/04 11:59:43;;;;;;;14.07;6.00;;;;;;;7.01;61.66;101585.61;126584;1099;101855;-79
2023/01/04 12:02:26;;;;;;;13.23;5.80;;;;;;;6.99;61.80;101579.36;126847;1099;101846;-79
2023/01/04 12:04:57;;;;;;;;;;;;;;;6.92;58.60;101581.45;126780;1098;103785;-78
2023/01/04 12:07:33;;;;;;;15.33;6.30;;;;;;;6.93;61.35;101576.34;125121;1099;104197;-79
2023/01/04 12:10:20;;;;;;;15.63;5.97;;;;;;;6.96;62.07;101570.44;124898;1099;104251;-78
2023/01/04 12:12:52;;;;;;;14.73;5.90;;;;;;;6.95;61.77;101566.01;125178;1099;102776;-79
2023/01/04 12:15:35;;;;;;;12.57;5.93;;;;;;;6.92;61.22;101574.55;125182;1099;104162;-79
2023/01/04 12:18:13;;;;;;;15.53;6.13;;;;;;;6.87;61.47;101581.14;125227;1099;104226;-80
2023/01/04 12:20:45;;;;;;;13.23;6.10;;;;;;;6.82;61.00;101586.08;125044;1098;102030;-80
2023/01/04 12:23:29;;;;;;;11.43;5.40;;;;;;;6.77;60.58;101587.45;127083;1098;102830;-80
2023/01/04 12:26:07;;;;;;;12.00;5.43;;;;;;;6.78;61.46;101586.66;125087;1099;104174;-80
2023/01/04 12:28:43;;;;;;;12.57;4.93;;;;;;;6.76;60.26;101588.27;124830;1098;104309;-79
2023/01/04 12:31:31;;;;;;;10.17;5.10;;;;;;;6.75;60.84;101591.67;125167;1099;102964;-80